createdAt,value
2019-05-02T00:00:03.068Z,1.10
2019-05-02T00:01:08.391Z,1.80
2019-05-02T00:02:14.044Z,1.27
2019-05-02T00:03:18.153Z,1.30
2019-05-02T00:04:21.893Z,1.30
2019-05-02T00:05:32.035Z,1.03
2019-05-02T00:06:38.163Z,2.83
2019-05-02T00:07:42.365Z,2.17
2019-05-02T00:08:45.996Z,3.30
2019-05-02T00:09:50.425Z,1.73
2019-05-02T00:10:54.760Z,4.27
2019-05-02T00:11:59.086Z,1.67
2019-05-02T00:13:03.065Z,3.07
2019-05-02T00:14:07.393Z,1.70
2019-05-02T00:15:13.203Z,1.77
2019-05-02T00:16:17.371Z,3.77
2019-05-02T00:17:25.581Z,1.97
2019-05-02T00:18:31.932Z,1.30
2019-05-02T00:19:33.873Z,2.83
2019-05-02T00:20:37.588Z,2.63
2019-05-02T00:21:43.046Z,1.67
2019-05-02T00:22:48.137Z,4.33
2019-05-02T00:23:52.336Z,1.60
2019-05-02T00:24:56.051Z,3.13
2019-05-02T00:25:59.726Z,2.50
2019-05-02T00:27:03.739Z,1.53
2019-05-02T00:28:07.683Z,1.93
2019-05-02T00:29:12.746Z,1.63
2019-05-02T00:30:17.461Z,1.70
2019-05-02T00:31:21.664Z,1.97
2019-05-02T00:32:25.337Z,1.80
2019-05-02T00:33:33.858Z,2.00
2019-05-02T00:34:34.489Z,2.13
2019-05-02T00:35:40.893Z,1.80
2019-05-02T00:36:43.533Z,2.57
2019-05-02T00:37:47.297Z,2.90
2019-05-02T00:38:50.851Z,1.80
2019-05-02T00:39:54.494Z,1.57
2019-05-02T00:41:02.279Z,1.60
2019-05-02T00:42:12.371Z,2.03
2019-05-02T00:43:09.452Z,3.17
2019-05-02T00:44:13.146Z,2.53
2019-05-02T00:45:18.811Z,2.80
2019-05-02T00:46:22.187Z,2.57
2019-05-02T00:47:33.650Z,3.60
2019-05-02T00:48:48.098Z,2.00
2019-05-02T00:49:51.720Z,3.60
2019-05-02T00:50:57.663Z,2.70
2019-05-02T00:52:03.101Z,2.70
2019-05-02T00:53:11.677Z,3.27
2019-05-02T00:54:12.396Z,2.37
2019-05-02T00:55:16.155Z,2.30
2019-05-02T00:56:19.852Z,2.30
2019-05-02T00:57:23.499Z,2.07
2019-05-02T00:58:31.567Z,3.40
2019-05-02T00:59:32.530Z,2.60
2019-05-02T01:00:54.879Z,2.70
2019-05-02T01:02:05.302Z,3.13
2019-05-02T01:03:11.236Z,2.20
2019-05-02T01:04:15.845Z,2.80
2019-05-02T01:05:19.523Z,2.50
2019-05-02T01:06:23.638Z,2.83
2019-05-02T01:07:27.265Z,2.43
2019-05-02T01:08:35.244Z,2.63
2019-05-02T01:09:36.273Z,3.07
2019-05-02T01:10:39.946Z,2.43
2019-05-02T01:11:43.598Z,2.87
2019-05-02T01:12:47.227Z,3.40
2019-05-02T01:13:55.850Z,5.23
2019-05-02T01:14:56.237Z,3.80
2019-05-02T01:15:59.914Z,2.80
2019-05-02T01:17:03.646Z,2.67
2019-05-02T01:18:07.989Z,2.50
2019-05-02T01:19:15.768Z,4.57
2019-05-02T01:20:17.110Z,2.43
2019-05-02T01:21:20.874Z,4.67
2019-05-02T01:22:24.504Z,1.90
2019-05-02T01:23:29.556Z,2.20
2019-05-02T01:24:34.282Z,3.83
2019-05-02T01:25:38.636Z,2.57
2019-05-02T01:26:43.920Z,3.00
2019-05-02T01:28:05.798Z,2.83
2019-05-02T01:29:13.868Z,2.30
2019-05-02T01:30:19.436Z,3.00
2019-05-02T01:31:27.599Z,3.63
2019-05-02T01:32:41.723Z,2.70
2019-05-02T01:34:03.653Z,2.30
2019-05-02T01:35:09.241Z,3.90
2019-05-02T01:36:14.519Z,3.00
2019-05-02T01:37:20.865Z,2.53
2019-05-02T01:38:33.785Z,3.87
2019-05-02T01:39:37.954Z,4.70
2019-05-02T01:40:43.456Z,4.30
2019-05-02T01:41:47.103Z,2.93
2019-05-02T01:42:51.058Z,2.50
2019-05-02T01:43:59.953Z,3.27
2019-05-02T01:45:00.371Z,3.67
2019-05-02T01:46:04.154Z,2.40
2019-05-02T01:47:08.173Z,3.60
2019-05-02T01:48:11.801Z,2.47
2019-05-02T01:49:16.937Z,2.60
2019-05-02T01:50:20.828Z,3.73
2019-05-02T01:51:24.492Z,2.57
2019-05-02T01:52:28.126Z,2.57
2019-05-02T01:53:34.321Z,2.70
2019-05-02T01:54:40.716Z,3.23
2019-05-02T01:55:42.711Z,3.57
2019-05-02T01:56:46.347Z,3.57
2019-05-02T01:57:49.976Z,4.27
2019-05-02T01:58:57.692Z,2.60
2019-05-02T01:59:58.994Z,2.33
2019-05-02T02:01:02.633Z,2.70
2019-05-02T02:02:06.487Z,2.83
2019-05-02T02:03:10.448Z,2.37
2019-05-02T02:04:16.256Z,3.13
2019-05-02T02:05:19.674Z,3.83
2019-05-02T02:06:23.310Z,2.37
2019-05-02T02:07:26.970Z,3.53
2019-05-02T02:08:32.513Z,3.37
2019-05-02T02:09:38.927Z,5.27
2019-05-02T02:10:43.823Z,4.50
2019-05-02T02:11:46.845Z,7.13
2019-05-02T02:13:03.643Z,6.30
2019-05-02T02:13:55.889Z,10.87
2019-05-02T02:14:59.514Z,8.13
2019-05-02T02:16:04.574Z,12.27
2019-05-02T02:17:10.232Z,11.47
2019-05-02T02:18:15.379Z,10.67
2019-05-02T02:19:34.771Z,7.73
2019-05-02T02:20:40.262Z,8.87
2019-05-02T02:21:45.564Z,10.37
2019-05-02T02:22:53.603Z,11.80
2019-05-02T02:24:05.066Z,13.33
2019-05-02T02:25:26.546Z,16.57
2019-05-02T02:26:30.221Z,15.37
2019-05-02T02:27:33.863Z,18.43
2019-05-02T02:28:37.948Z,16.27
2019-05-02T02:29:43.960Z,15.87
2019-05-02T02:30:46.963Z,14.90
2019-05-02T02:31:50.740Z,16.73
2019-05-02T02:33:00.435Z,14.93
2019-05-02T02:33:59.832Z,18.23
2019-05-02T02:35:09.824Z,19.87
2019-05-02T02:36:09.141Z,17.40
2019-05-02T02:37:15.165Z,21.60
2019-05-02T02:38:18.320Z,17.37
2019-05-02T02:39:21.965Z,16.47
2019-05-02T02:40:32.531Z,15.03
2019-05-02T02:41:31.042Z,14.53
2019-05-02T02:42:34.893Z,15.57
2019-05-02T02:43:38.541Z,15.13
2019-05-02T02:44:52.977Z,13.57
2019-05-02T02:46:15.829Z,17.87
2019-05-02T02:47:21.282Z,16.17
2019-05-02T02:48:24.851Z,16.30
2019-05-02T02:49:28.478Z,14.70
2019-05-02T02:50:36.636Z,12.20
2019-05-02T02:51:37.539Z,13.00
2019-05-02T02:52:44.646Z,13.03
2019-05-02T02:53:46.609Z,13.37
2019-05-02T02:54:50.380Z,13.00
2019-05-02T02:56:01.806Z,11.67
2019-05-02T02:57:01.697Z,13.57
2019-05-02T02:58:06.637Z,15.97
2019-05-02T02:59:10.276Z,13.40
2019-05-02T03:00:14.582Z,10.27
2019-05-02T03:01:26.923Z,11.80
2019-05-02T03:02:23.710Z,10.33
2019-05-02T03:03:30.013Z,9.50
2019-05-02T03:04:32.935Z,8.97
2019-05-02T03:05:36.575Z,10.90
2019-05-02T03:06:44.860Z,7.77
2019-05-02T03:07:45.654Z,6.83
2019-05-02T03:08:49.491Z,7.97
2019-05-02T03:09:53.123Z,5.13
2019-05-02T03:10:57.056Z,6.10
2019-05-02T03:12:18.861Z,5.43
2019-05-02T03:13:27.088Z,6.93
2019-05-02T03:14:32.483Z,7.03
2019-05-02T03:15:37.756Z,7.83
2019-05-02T03:16:47.206Z,8.17
2019-05-02T03:17:49.309Z,5.37
2019-05-02T03:18:52.909Z,5.13
2019-05-02T03:20:00.975Z,6.13
2019-05-02T03:21:01.958Z,7.43
2019-05-02T03:22:05.617Z,4.47
2019-05-02T03:23:14.994Z,4.83
2019-05-02T03:24:13.636Z,4.37
2019-05-02T03:25:18.049Z,4.33
2019-05-02T03:26:22.761Z,4.57
2019-05-02T03:27:29.982Z,4.37
2019-05-02T03:28:31.784Z,5.03
2019-05-02T03:29:41.478Z,4.53
2019-05-02T03:30:40.933Z,4.90
2019-05-02T03:31:44.895Z,4.43
2019-05-02T03:33:02.506Z,5.47
2019-05-02T03:34:00.197Z,5.73
2019-05-02T03:34:59.608Z,5.43
2019-05-02T03:36:03.363Z,5.97
2019-05-02T03:37:10.236Z,5.83
2019-05-02T03:38:12.583Z,8.73
2019-05-02T03:39:17.481Z,4.93
2019-05-02T03:40:21.805Z,6.77
2019-05-02T03:41:25.880Z,6.63
2019-05-02T03:42:29.611Z,6.87
2019-05-02T03:43:33.301Z,6.10
2019-05-02T03:44:37.902Z,5.77
2019-05-02T03:45:43.123Z,7.00
2019-05-02T03:46:47.058Z,5.87
2019-05-02T03:47:50.664Z,9.70
2019-05-02T03:49:05.432Z,9.90
2019-05-02T03:50:00.585Z,9.33
2019-05-02T03:51:05.180Z,10.63
2019-05-02T03:52:09.673Z,19.70
2019-05-02T03:53:17.576Z,25.73
2019-05-02T03:54:20.134Z,29.43
2019-05-02T03:55:31.265Z,32.57
2019-05-02T03:56:31.497Z,36.93
2019-05-02T03:57:36.156Z,45.70
2019-05-02T03:58:40.016Z,45.10
2019-05-02T03:59:44.266Z,50.20
2019-05-02T04:00:47.938Z,54.20
2019-05-02T04:01:52.008Z,57.43
2019-05-02T04:03:00.356Z,59.37
2019-05-02T04:04:04.717Z,61.27
2019-05-02T04:05:08.498Z,61.30
2019-05-02T04:06:20.753Z,54.30
2019-05-02T04:07:19.960Z,36.40
2019-05-02T04:08:24.263Z,35.40
2019-05-02T04:09:39.091Z,32.83
2019-05-02T04:10:44.962Z,26.50
2019-05-02T04:11:49.041Z,24.73
2019-05-02T04:12:58.405Z,28.00
2019-05-02T04:13:58.835Z,34.50
2019-05-02T04:15:02.595Z,22.87
2019-05-02T04:16:14.639Z,21.20
2019-05-02T04:17:12.499Z,18.10
2019-05-02T04:18:17.945Z,19.23
2019-05-02T04:19:21.753Z,20.10
2019-05-02T04:20:27.251Z,20.40
2019-05-02T04:21:30.994Z,21.40
2019-05-02T04:22:35.884Z,18.80
2019-05-02T04:23:39.713Z,19.50
2019-05-02T04:24:47.791Z,17.10
2019-05-02T04:25:49.696Z,13.83
2019-05-02T04:26:56.332Z,13.97
2019-05-02T04:28:00.257Z,10.87
2019-05-02T04:29:03.885Z,11.80
2019-05-02T04:30:11.211Z,13.83
2019-05-02T04:31:13.107Z,10.83
2019-05-02T04:32:20.368Z,10.87
2019-05-02T04:33:29.052Z,12.33
2019-05-02T04:34:29.660Z,10.70
2019-05-02T04:35:34.790Z,13.00
2019-05-02T04:36:38.644Z,14.07
2019-05-02T04:37:43.824Z,13.93
2019-05-02T04:38:51.963Z,17.00
2019-05-02T04:39:53.872Z,14.13
2019-05-02T04:40:59.253Z,13.00
2019-05-02T04:42:12.929Z,11.27
2019-05-02T04:43:11.400Z,8.83
2019-05-02T04:44:13.898Z,11.60
2019-05-02T04:45:28.292Z,10.33
2019-05-02T04:46:28.168Z,11.53
2019-05-02T04:47:29.137Z,9.53
2019-05-02T04:48:34.566Z,10.67
2019-05-02T04:49:39.266Z,12.33
2019-05-02T04:50:43.136Z,17.00
2019-05-02T04:51:50.823Z,16.20
2019-05-02T04:52:54.054Z,10.80
2019-05-02T04:53:58.831Z,15.73
2019-05-02T04:55:14.451Z,9.97
2019-05-02T04:56:10.555Z,9.60
2019-05-02T04:57:13.623Z,9.63
2019-05-02T04:58:24.251Z,10.63
2019-05-02T04:59:23.170Z,11.07
2019-05-02T05:00:28.695Z,9.57
2019-05-02T05:01:41.929Z,10.70
2019-05-02T05:02:40.090Z,9.40
2019-05-02T05:03:51.299Z,10.03
2019-05-02T05:04:49.579Z,8.03
2019-05-02T05:05:53.414Z,10.40
2019-05-02T05:07:00.908Z,9.50
2019-05-02T05:08:02.402Z,11.03
2019-05-02T05:09:12.677Z,8.33
2019-05-02T05:10:12.421Z,11.93
2019-05-02T05:11:20.723Z,9.57
2019-05-02T05:12:21.582Z,11.43
2019-05-02T05:13:26.519Z,11.00
2019-05-02T05:14:37.855Z,10.97
2019-05-02T05:15:44.557Z,11.57
2019-05-02T05:16:45.357Z,9.90
2019-05-02T05:17:47.922Z,10.23
2019-05-02T05:18:53.311Z,9.03
2019-05-02T05:19:57.357Z,7.83
2019-05-02T05:21:02.331Z,8.63
2019-05-02T05:22:11.527Z,8.30
2019-05-02T05:23:15.753Z,7.30
2019-05-02T05:24:20.465Z,8.87
2019-05-02T05:25:27.840Z,7.77
2019-05-02T05:26:33.827Z,8.90
2019-05-02T05:27:38.182Z,5.97
2019-05-02T05:28:44.388Z,6.93
2019-05-02T05:29:48.594Z,6.77
2019-05-02T05:30:52.414Z,9.20
2019-05-02T05:32:05.414Z,8.30
2019-05-02T05:33:01.440Z,6.90
2019-05-02T05:34:05.601Z,13.97
2019-05-02T05:35:12.889Z,8.90
2019-05-02T05:36:14.814Z,8.63
2019-05-02T05:37:18.453Z,11.07
2019-05-02T05:38:22.947Z,7.93
2019-05-02T05:39:28.242Z,9.87
2019-05-02T05:40:32.344Z,8.80
2019-05-02T05:41:37.860Z,12.30
2019-05-02T05:42:41.571Z,11.87
2019-05-02T05:43:50.073Z,16.50
2019-05-02T05:44:50.652Z,12.07
2019-05-02T05:46:06.093Z,11.63
2019-05-02T05:46:59.642Z,10.80
2019-05-02T05:48:03.334Z,9.27
2019-05-02T05:49:10.541Z,10.07
2019-05-02T05:50:12.927Z,7.47
2019-05-02T05:51:20.517Z,9.37
2019-05-02T05:52:21.956Z,10.13
2019-05-02T05:53:28.075Z,8.13
2019-05-02T05:54:33.144Z,11.43
2019-05-02T05:55:38.289Z,11.33
2019-05-02T05:56:43.207Z,10.80
2019-05-02T05:57:49.942Z,9.13
2019-05-02T05:58:52.868Z,9.43
2019-05-02T05:59:58.407Z,10.70
2019-05-02T06:01:02.030Z,8.50
2019-05-02T06:02:11.155Z,9.43
2019-05-02T06:03:14.171Z,8.90
2019-05-02T06:04:22.124Z,9.30
2019-05-02T06:05:22.285Z,6.83
2019-05-02T06:06:27.455Z,10.93
2019-05-02T06:07:33.667Z,7.00
2019-05-02T06:08:36.758Z,7.67
2019-05-02T06:09:40.392Z,11.47
2019-05-02T06:10:45.268Z,7.17
2019-05-02T06:11:50.755Z,7.03
2019-05-02T06:12:54.601Z,7.10
2019-05-02T06:13:58.207Z,7.07
2019-05-02T06:15:03.741Z,8.87
2019-05-02T06:16:10.516Z,9.40
2019-05-02T06:17:12.679Z,7.43
2019-05-02T06:18:16.321Z,8.97
2019-05-02T06:19:19.948Z,6.90
2019-05-02T06:20:25.712Z,8.23
2019-05-02T06:21:29.152Z,11.87
2019-05-02T06:22:32.806Z,8.17
2019-05-02T06:23:41.220Z,7.03
2019-05-02T06:24:46.115Z,7.43
2019-05-02T06:25:47.623Z,7.23
2019-05-02T06:26:51.774Z,7.23
2019-05-02T06:28:00.115Z,8.27
2019-05-02T06:29:01.067Z,6.10
2019-05-02T06:30:07.703Z,7.37
2019-05-02T06:31:11.395Z,9.10
2019-05-02T06:32:19.288Z,8.23
2019-05-02T06:33:20.534Z,8.23
2019-05-02T06:34:24.627Z,9.23
2019-05-02T06:35:28.332Z,8.83
2019-05-02T06:36:36.523Z,6.33
2019-05-02T06:37:40.489Z,8.17
2019-05-02T06:38:43.396Z,9.03
2019-05-02T06:39:47.098Z,8.50
2019-05-02T06:40:50.782Z,9.27
2019-05-02T06:41:57.486Z,8.10
2019-05-02T06:43:04.386Z,7.50
2019-05-02T06:44:05.962Z,8.67
2019-05-02T06:45:10.303Z,7.17
2019-05-02T06:46:16.286Z,8.60
2019-05-02T06:47:19.393Z,6.90
2019-05-02T06:48:23.083Z,8.33
2019-05-02T06:49:26.795Z,15.00
2019-05-02T06:50:33.374Z,13.30
2019-05-02T06:51:37.044Z,11.37
2019-05-02T06:52:40.771Z,14.27
2019-05-02T06:53:47.007Z,10.67
2019-05-02T06:54:54.039Z,11.07
2019-05-02T06:55:55.217Z,12.30
2019-05-02T06:56:59.080Z,9.77
2019-05-02T06:58:07.805Z,10.03
2019-05-02T06:59:08.208Z,9.17
2019-05-02T07:00:12.653Z,9.80
2019-05-02T07:01:21.060Z,8.90
2019-05-02T07:02:21.818Z,11.43
2019-05-02T07:03:27.597Z,9.00
2019-05-02T07:04:31.076Z,9.43
2019-05-02T07:05:34.699Z,9.50
2019-05-02T07:06:55.928Z,8.03
2019-05-02T07:07:44.043Z,9.27
2019-05-02T07:08:47.818Z,11.20
2019-05-02T07:09:51.593Z,9.17
2019-05-02T07:10:55.844Z,10.30
2019-05-02T07:12:01.655Z,10.07
2019-05-02T07:13:10.661Z,7.90
2019-05-02T07:14:13.417Z,11.10
2019-05-02T07:15:38.545Z,11.73
2019-05-02T07:16:44.656Z,11.17
2019-05-02T07:17:48.680Z,10.67
2019-05-02T07:19:02.997Z,12.57
2019-05-02T07:20:08.707Z,9.77
2019-05-02T07:21:17.413Z,10.27
2019-05-02T07:22:17.886Z,8.67
2019-05-02T07:23:21.627Z,9.60
2019-05-02T07:24:30.559Z,10.07
2019-05-02T07:25:33.113Z,9.73
2019-05-02T07:26:37.192Z,10.60
2019-05-02T07:27:40.865Z,11.33
2019-05-02T07:28:45.686Z,12.73
2019-05-02T07:29:52.091Z,8.57
2019-05-02T07:31:01.339Z,11.23
2019-05-02T07:32:05.266Z,9.27
2019-05-02T07:33:08.992Z,8.80
2019-05-02T07:34:14.103Z,11.20
2019-05-02T07:35:19.358Z,9.73
2019-05-02T07:36:23.413Z,10.27
2019-05-02T07:37:27.206Z,9.97
2019-05-02T07:38:30.846Z,10.43
2019-05-02T07:39:55.131Z,10.17
2019-05-02T07:40:59.158Z,9.10
2019-05-02T07:42:05.771Z,8.00
2019-05-02T07:43:13.561Z,9.47
2019-05-02T07:44:16.806Z,8.73
2019-05-02T07:45:20.471Z,8.20
2019-05-02T07:46:24.093Z,13.07
2019-05-02T07:47:28.898Z,7.90
2019-05-02T07:48:32.814Z,15.00
2019-05-02T07:49:36.443Z,8.90
2019-05-02T07:50:41.165Z,11.77
2019-05-02T07:51:45.463Z,7.20
2019-05-02T07:52:49.100Z,9.63
2019-05-02T07:53:55.390Z,9.17
2019-05-02T07:55:01.040Z,11.10
2019-05-02T07:56:03.595Z,9.30
2019-05-02T07:57:07.333Z,10.03
2019-05-02T07:58:10.983Z,8.57
2019-05-02T07:59:14.662Z,9.43
2019-05-02T08:00:20.274Z,7.10
2019-05-02T08:01:24.092Z,10.30
2019-05-02T08:02:27.882Z,11.73
2019-05-02T08:03:33.513Z,11.47
2019-05-02T08:04:37.049Z,20.60
2019-05-02T08:05:40.708Z,17.27
2019-05-02T08:06:46.122Z,7.87
2019-05-02T08:07:53.378Z,10.70
2019-05-02T08:08:55.143Z,8.60
2019-05-02T08:09:58.818Z,5.87
2019-05-02T08:11:03.264Z,9.10
2019-05-02T08:12:07.396Z,8.23
2019-05-02T08:13:12.140Z,9.20
2019-05-02T08:14:16.601Z,6.57
2019-05-02T08:15:20.268Z,8.87
2019-05-02T08:16:27.309Z,8.63
2019-05-02T08:17:29.279Z,8.90
2019-05-02T08:18:33.003Z,7.90
2019-05-02T08:19:37.452Z,11.73
2019-05-02T08:20:42.142Z,9.40
2019-05-02T08:21:46.732Z,9.87
2019-05-02T08:22:50.662Z,9.00
2019-05-02T08:23:57.257Z,8.53
2019-05-02T08:24:59.946Z,8.07
2019-05-02T08:26:03.682Z,7.97
2019-05-02T08:27:08.962Z,7.47
2019-05-02T08:28:20.201Z,12.53
2019-05-02T08:29:28.750Z,5.90
2019-05-02T08:30:29.803Z,8.93
2019-05-02T08:31:33.510Z,8.57
2019-05-02T08:32:37.204Z,9.33
2019-05-02T08:33:40.915Z,6.10
2019-05-02T08:34:46.224Z,7.27
2019-05-02T08:35:49.957Z,9.80
2019-05-02T08:36:53.714Z,9.33
2019-05-02T08:37:57.357Z,8.27
2019-05-02T08:39:00.983Z,7.20
2019-05-02T08:40:10.636Z,10.10
2019-05-02T08:41:12.426Z,9.87
2019-05-02T08:42:17.053Z,6.90
2019-05-02T08:43:20.706Z,7.93
2019-05-02T08:44:24.380Z,8.77
2019-05-02T08:45:28.058Z,9.57
2019-05-02T08:46:31.706Z,9.60
2019-05-02T08:47:35.343Z,10.97
2019-05-02T08:48:41.830Z,8.97
2019-05-02T08:49:44.368Z,7.07
2019-05-02T08:50:48.064Z,7.60
2019-05-02T08:51:51.704Z,8.90
2019-05-02T08:52:55.355Z,10.43
2019-05-02T08:53:59.067Z,9.80
2019-05-02T08:55:04.461Z,10.33
2019-05-02T08:56:08.130Z,7.27
2019-05-02T08:57:11.756Z,9.23
2019-05-02T08:58:15.885Z,5.90
2019-05-02T08:59:24.391Z,9.88
2019-05-02T09:00:25.308Z,9.33
2019-05-02T09:01:35.304Z,8.25
2019-05-02T09:02:41.181Z,9.85
2019-05-02T09:03:54.641Z,5.95
2019-05-02T09:04:57.648Z,10.20
2019-05-02T09:05:50.635Z,6.70
2019-05-02T09:06:58.778Z,6.83
2019-05-02T09:07:59.692Z,6.10
2019-05-02T09:09:05.112Z,6.25
2019-05-02T09:10:09.460Z,7.72
2019-05-02T09:11:15.680Z,7.83
2019-05-02T09:12:20.150Z,5.58
2019-05-02T09:13:29.135Z,9.30
2019-05-02T09:14:29.499Z,5.80
2019-05-02T09:15:35.202Z,8.50
2019-05-02T09:16:38.552Z,11.63
2019-05-02T09:17:46.153Z,8.25
2019-05-02T09:18:51.922Z,7.03
2019-05-02T09:20:00.407Z,8.38
2019-05-02T09:20:58.416Z,8.88
2019-05-02T09:22:02.613Z,9.13
2019-05-02T09:23:06.400Z,11.90
2019-05-02T09:24:13.583Z,7.00
2019-05-02T09:25:15.875Z,7.17
2019-05-02T09:26:33.307Z,6.37
2019-05-02T09:27:24.916Z,7.45
2019-05-02T09:28:28.673Z,8.95
2019-05-02T09:29:32.802Z,6.40
2019-05-02T09:30:36.550Z,5.90
2019-05-02T09:31:42.322Z,6.75
2019-05-02T09:32:45.603Z,6.15
2019-05-02T09:33:49.241Z,6.87
2019-05-02T09:34:56.723Z,6.97
2019-05-02T09:35:58.242Z,9.48
2019-05-02T09:37:02.776Z,8.98
2019-05-02T09:38:06.625Z,10.63
2019-05-02T09:39:11.893Z,9.85
2019-05-02T09:40:16.850Z,8.35
2019-05-02T09:41:22.115Z,6.72
2019-05-02T09:42:26.009Z,5.55
2019-05-02T09:43:37.486Z,7.30
2019-05-02T09:44:35.071Z,8.45
2019-05-02T09:45:41.170Z,8.90
2019-05-02T09:46:47.456Z,4.45
2019-05-02T09:47:59.632Z,7.03
2019-05-02T09:48:57.062Z,9.13
2019-05-02T09:50:12.862Z,7.42
2019-05-02T09:51:17.478Z,5.85
2019-05-02T09:52:22.233Z,6.55
2019-05-02T09:53:25.953Z,9.00
2019-05-02T09:54:29.669Z,7.95
2019-05-02T09:55:33.303Z,6.80
2019-05-02T09:56:37.037Z,7.62
2019-05-02T09:57:42.802Z,4.67
2019-05-02T09:58:49.279Z,4.92
2019-05-02T09:59:55.755Z,6.15
2019-05-02T10:01:14.343Z,6.17
2019-05-02T10:02:17.972Z,5.40
2019-05-02T10:03:22.699Z,7.37
2019-05-02T10:04:26.463Z,4.50
2019-05-02T10:05:32.099Z,8.20
2019-05-02T10:06:35.603Z,10.10
2019-05-02T10:07:39.270Z,6.92
2019-05-02T10:08:46.495Z,4.45
2019-05-02T10:09:48.388Z,5.85
2019-05-02T10:10:52.416Z,10.60
2019-05-02T10:11:56.106Z,6.87
2019-05-02T10:12:59.796Z,5.35
2019-05-02T10:14:03.555Z,7.35
2019-05-02T10:15:10.224Z,6.53
2019-05-02T10:16:17.910Z,7.05
2019-05-02T10:17:19.824Z,7.10
2019-05-02T10:18:29.894Z,5.70
2019-05-02T10:19:29.552Z,5.67
2019-05-02T10:20:36.330Z,7.58
2019-05-02T10:21:39.177Z,8.45
2019-05-02T10:22:43.800Z,6.37
2019-05-02T10:23:51.741Z,7.05
2019-05-02T10:24:52.914Z,4.95
2019-05-02T10:25:56.607Z,8.03
2019-05-02T10:27:04.029Z,6.97
2019-05-02T10:28:06.036Z,5.12
2019-05-02T10:29:09.679Z,6.47
2019-05-02T10:30:15.787Z,6.17
2019-05-02T10:31:21.699Z,4.55
2019-05-02T10:32:24.934Z,3.95
2019-05-02T10:33:33.718Z,8.30
2019-05-02T10:34:34.139Z,8.93
2019-05-02T10:35:43.337Z,8.95
2019-05-02T10:36:51.952Z,7.50
2019-05-02T10:37:54.744Z,9.80
2019-05-02T10:38:59.363Z,5.20
2019-05-02T10:40:07.861Z,6.67
2019-05-02T10:41:08.897Z,8.53
2019-05-02T10:42:12.610Z,6.45
2019-05-02T10:43:16.345Z,6.12
2019-05-02T10:44:22.377Z,5.80
2019-05-02T10:45:25.849Z,7.15
2019-05-02T10:46:46.205Z,6.62
2019-05-02T10:47:49.897Z,5.95
2019-05-02T10:48:55.227Z,7.87
2019-05-02T10:50:02.308Z,5.08
2019-05-02T10:51:26.342Z,8.60
2019-05-02T10:52:33.966Z,7.08
2019-05-02T10:53:35.542Z,5.17
2019-05-02T10:54:39.173Z,5.50
2019-05-02T10:55:42.843Z,5.35
2019-05-02T10:56:46.484Z,9.08
2019-05-02T10:57:50.165Z,4.20
2019-05-02T10:58:54.270Z,6.70
2019-05-02T10:59:57.899Z,6.20
2019-05-02T11:01:02.267Z,6.85
2019-05-02T11:02:25.976Z,10.43
2019-05-02T11:03:31.974Z,7.40
2019-05-02T11:04:37.320Z,6.65
2019-05-02T11:05:52.855Z,10.15
2019-05-02T11:06:56.902Z,5.62
2019-05-02T11:08:04.679Z,7.35
2019-05-02T11:09:09.087Z,6.47
2019-05-02T11:10:13.290Z,5.12
2019-05-02T11:11:17.081Z,6.37
2019-05-02T11:12:25.519Z,6.70
2019-05-02T11:13:32.312Z,5.55
2019-05-02T11:14:37.542Z,6.00
2019-05-02T11:16:01.623Z,6.58
2019-05-02T11:17:17.674Z,6.15
2019-05-02T11:18:39.381Z,4.35
2019-05-02T11:19:32.908Z,6.42
2019-05-02T11:20:36.743Z,8.08
2019-05-02T11:21:53.586Z,5.60
2019-05-02T11:22:46.032Z,6.12
2019-05-02T11:23:52.695Z,6.85
2019-05-02T11:24:56.534Z,7.90
2019-05-02T11:26:01.766Z,5.47
2019-05-02T11:27:08.119Z,4.65
2019-05-02T11:28:12.407Z,6.25
2019-05-02T11:29:16.634Z,3.60
2019-05-02T11:30:22.441Z,5.50
2019-05-02T11:31:25.740Z,10.78
2019-05-02T11:32:29.378Z,6.92
2019-05-02T11:33:33.104Z,4.90
2019-05-02T11:34:36.797Z,5.85
2019-05-02T11:35:41.953Z,8.98
2019-05-02T11:36:45.819Z,7.83
2019-05-02T11:37:51.619Z,4.28
2019-05-02T11:39:03.278Z,5.05
2019-05-02T11:40:02.789Z,5.55
2019-05-02T11:41:06.251Z,4.85
2019-05-02T11:42:09.963Z,9.15
2019-05-02T11:43:13.716Z,4.92
2019-05-02T11:44:17.346Z,4.25
2019-05-02T11:45:22.719Z,7.95
2019-05-02T11:46:26.443Z,7.17
2019-05-02T11:47:30.096Z,9.73
2019-05-02T11:48:33.752Z,5.25
2019-05-02T11:49:37.384Z,6.92
2019-05-02T11:50:42.262Z,5.53
2019-05-02T11:51:47.017Z,4.45
2019-05-02T11:52:52.296Z,5.92
2019-05-02T11:53:59.461Z,8.33
2019-05-02T11:55:02.162Z,5.08
2019-05-02T11:56:07.822Z,6.10
2019-05-02T11:57:11.754Z,4.75
2019-05-02T11:58:15.523Z,4.95
2019-05-02T11:59:20.742Z,6.92
2019-05-02T12:00:24.616Z,6.90
2019-05-02T12:01:35.449Z,5.10
2019-05-02T12:02:38.321Z,6.60
2019-05-02T12:03:43.584Z,6.40
2019-05-02T12:04:51.781Z,4.28
2019-05-02T12:05:52.768Z,5.40
2019-05-02T12:07:00.886Z,8.33
2019-05-02T12:08:07.703Z,5.33
2019-05-02T12:09:09.426Z,4.90
2019-05-02T12:10:13.265Z,5.90
2019-05-02T12:11:17.814Z,4.70
2019-05-02T12:12:22.761Z,4.15
2019-05-02T12:13:26.468Z,5.97
2019-05-02T12:14:32.805Z,5.22
2019-05-02T12:15:35.550Z,6.00
2019-05-02T12:16:39.186Z,6.30
2019-05-02T12:17:42.865Z,5.00
2019-05-02T12:18:46.587Z,5.62
2019-05-02T12:19:52.241Z,4.55
2019-05-02T12:20:55.798Z,5.33
2019-05-02T12:22:02.446Z,9.10
2019-05-02T12:23:05.373Z,6.53
2019-05-02T12:24:09.075Z,8.98
2019-05-02T12:25:13.061Z,8.80
2019-05-02T12:26:16.714Z,7.33
2019-05-02T12:27:22.058Z,6.65
2019-05-02T12:28:25.871Z,5.55
2019-05-02T12:29:29.510Z,4.25
2019-05-02T12:30:36.625Z,5.85
2019-05-02T12:31:38.941Z,7.40
2019-05-02T12:32:43.021Z,4.30
2019-05-02T12:33:46.713Z,6.37
2019-05-02T12:34:50.349Z,5.87
2019-05-02T12:35:55.758Z,3.77
2019-05-02T12:36:59.406Z,5.37
2019-05-02T12:38:03.136Z,7.15
2019-05-02T12:39:07.520Z,6.17
2019-05-02T12:40:12.182Z,3.60
2019-05-02T12:41:21.994Z,6.20
2019-05-02T12:42:23.941Z,4.17
2019-05-02T12:43:27.330Z,8.33
2019-05-02T12:44:31.830Z,6.20
2019-05-02T12:45:35.618Z,5.40
2019-05-02T12:46:39.254Z,6.05
2019-05-02T12:47:43.744Z,5.70
2019-05-02T12:48:47.370Z,3.95
2019-05-02T12:49:51.932Z,5.47
2019-05-02T12:50:55.845Z,5.08
2019-05-02T12:52:01.592Z,8.28
2019-05-02T12:53:04.946Z,7.60
2019-05-02T12:54:08.595Z,3.58
2019-05-02T12:55:12.872Z,4.50
2019-05-02T12:56:16.664Z,4.45
2019-05-02T12:57:21.973Z,6.83
2019-05-02T12:58:26.133Z,4.37
2019-05-02T12:59:29.767Z,5.05
2019-05-02T13:00:33.396Z,3.17
2019-05-02T13:01:37.176Z,8.53
2019-05-02T13:02:54.389Z,3.02
2019-05-02T13:04:05.359Z,7.37
2019-05-02T13:05:09.108Z,4.80
2019-05-02T13:06:12.750Z,3.40
2019-05-02T13:07:16.417Z,6.95
2019-05-02T13:08:21.923Z,3.42
2019-05-02T13:09:25.450Z,5.75
2019-05-02T13:10:32.638Z,6.35
2019-05-02T13:11:42.184Z,5.62
2019-05-02T13:12:46.437Z,4.17
2019-05-02T13:13:51.213Z,4.70
2019-05-02T13:14:55.459Z,4.37
2019-05-02T13:16:01.611Z,3.67
2019-05-02T13:17:05.873Z,6.67
2019-05-02T13:18:09.804Z,5.95
2019-05-02T13:19:13.454Z,6.37
2019-05-02T13:20:18.862Z,8.95
2019-05-02T13:21:39.374Z,5.17
2019-05-02T13:22:48.819Z,6.28
2019-05-02T13:23:54.124Z,3.98
2019-05-02T13:24:59.455Z,3.20
2019-05-02T13:26:10.251Z,3.90
2019-05-02T13:27:12.494Z,5.67
2019-05-02T13:28:17.108Z,5.50
2019-05-02T13:29:22.536Z,4.30
2019-05-02T13:30:32.861Z,4.60
2019-05-02T13:31:43.529Z,6.28
2019-05-02T13:32:53.724Z,6.05
2019-05-02T13:34:14.722Z,5.95
2019-05-02T13:35:18.770Z,3.83
2019-05-02T13:36:46.801Z,6.65
2019-05-02T13:37:51.809Z,3.47
2019-05-02T13:38:55.760Z,3.83
2019-05-02T13:40:03.761Z,5.58
2019-05-02T13:41:07.557Z,4.62
2019-05-02T13:42:12.546Z,4.75
2019-05-02T13:43:17.359Z,5.97
2019-05-02T13:44:25.514Z,5.60
2019-05-02T13:45:36.770Z,4.55
2019-05-02T13:46:41.932Z,3.42
2019-05-02T13:47:45.740Z,6.05
2019-05-02T13:48:49.478Z,6.47
2019-05-02T13:49:57.281Z,7.15
2019-05-02T13:50:58.838Z,5.15
2019-05-02T13:52:02.625Z,8.00
2019-05-02T13:53:06.296Z,3.52
2019-05-02T13:54:09.935Z,7.12
2019-05-02T13:55:15.638Z,10.23
2019-05-02T13:56:23.916Z,6.35
2019-05-02T13:57:27.572Z,10.25
2019-05-02T13:58:33.176Z,4.08
2019-05-02T13:59:36.583Z,5.72
2019-05-02T14:00:46.747Z,6.22
2019-05-02T14:01:52.255Z,4.95
2019-05-02T14:02:56.124Z,8.40
2019-05-02T14:04:03.582Z,5.08
2019-05-02T14:05:12.869Z,4.60
2019-05-02T14:06:16.569Z,5.40
2019-05-02T14:07:23.788Z,3.90
2019-05-02T14:08:35.393Z,4.53
2019-05-02T14:09:38.798Z,5.40
2019-05-02T14:10:44.073Z,8.23
2019-05-02T14:12:05.567Z,5.58
2019-05-02T14:13:09.228Z,6.15
2019-05-02T14:14:12.861Z,6.17
2019-05-02T14:15:19.255Z,3.50
2019-05-02T14:16:23.123Z,7.15
2019-05-02T14:17:26.780Z,6.97
2019-05-02T14:18:31.606Z,3.33
2019-05-02T14:19:35.866Z,5.97
2019-05-02T14:20:39.509Z,6.00
2019-05-02T14:21:45.179Z,7.58